DW8453 Bekkjarvik NO current weather conditions

sailwx.info

Wind from 137 at 1 knots gusting 1

Air temperature 11.1° C
Dewpoint 9.2° C

Last reported at 2017-Sep-23 23:08 UTC.
Time now 2017-Sep-23 23:52 UTC

Location: N 60°01' E 005°12'.
View on Google Maps.

See reports from other nearby stations

  
Tides and Currents Weather Stations Pressure Air Temp Water Temp Dewpoint Dewpoint Depression Visibility Wind Speed Wind Dir Waves Ship Positions
date/time (UTC)wind fromknots sea level pressurealtimeterstation pressurevisibilityair tempwater tempwave heightnotes
2017-Sep-23 23:08 137 1 gusting 1 11.1
2017-Sep-23 23:03 158 1 gusting 1 11.1
2017-Sep-23 22:58 158 0 gusting 1 11.1
2017-Sep-23 22:53 171 1 gusting 1 11.1
2017-Sep-23 22:48 180 1 gusting 1 11.1
2017-Sep-23 22:43 158 1 gusting 1 11.1
2017-Sep-23 22:38 135 2 gusting 2 11.1
2017-Sep-23 22:33 158 1 gusting 1 11.7
2017-Sep-23 22:28 141 1 gusting 1 11.7
2017-Sep-23 22:23 158 2 gusting 2 11.7
2017-Sep-23 22:18 135 2 gusting 2 11.7
2017-Sep-23 22:13 158 2 gusting 2 11.7
2017-Sep-23 22:08 179 0 gusting 2 11.7
2017-Sep-23 22:03 135 1 gusting 1 11.7
2017-Sep-23 21:58 139 1 gusting 1 11.7
2017-Sep-23 21:53 135 1 gusting 2 11.7
2017-Sep-23 21:48 155 2 gusting 2 11.7
2017-Sep-23 21:43 156 1 gusting 1 11.7
2017-Sep-23 21:38 158 2 gusting 2 11.7
2017-Sep-23 21:33 157 1 gusting 1 11.7
2017-Sep-23 21:28 156 2 gusting 2 11.7
2017-Sep-23 21:23 158 1 gusting 2 12.2
2017-Sep-23 21:18 158 1 gusting 1 12.2
2017-Sep-23 21:13 157 1 gusting 2 12.2
2017-Sep-23 21:08 157 1 gusting 1 12.2
2017-Sep-23 21:03 158 1 gusting 1 12.2
2017-Sep-23 20:58 135 1 gusting 1 12.2
2017-Sep-23 20:53 135 1 gusting 1 12.2
2017-Sep-23 20:48 158 1 gusting 1 12.2
2017-Sep-23 20:43 158 1 gusting 1 12.2
2017-Sep-23 20:38 135 1 gusting 1 12.8
2017-Sep-23 20:33 158 0 gusting 1 12.8
2017-Sep-23 20:28 158 0 gusting 1 12.8
2017-Sep-23 20:23 138 1 gusting 2 12.8
2017-Sep-23 20:18 177 1 gusting 2 12.8
2017-Sep-23 20:13 158 2 gusting 2 12.8
2017-Sep-23 20:08 158 1 gusting 2 12.8
2017-Sep-23 20:03 158 1 gusting 4 12.8
2017-Sep-23 19:58 158 2 gusting 4 12.8
2017-Sep-23 19:53 140 1 gusting 4 12.8
2017-Sep-23 19:48 153 1 gusting 2 12.8
2017-Sep-23 19:43 138 1 gusting 1 12.8
2017-Sep-23 19:38 162 1 gusting 2 12.8
2017-Sep-23 19:33 135 2 gusting 4 12.8
2017-Sep-23 19:28 135 1 gusting 2 12.8
2017-Sep-23 19:23 158 1 gusting 1 13.3
2017-Sep-23 19:18 155 1 gusting 2 13.3
2017-Sep-23 19:13 178 1 gusting 2 13.3
2017-Sep-23 19:08 202 1 gusting 1 13.3
2017-Sep-23 19:03 204 2 gusting 2 13.3
2017-Sep-23 18:58 219 4 gusting 5 13.3
2017-Sep-23 18:53 221 2 gusting 4 13.3
2017-Sep-23 18:48 222 2 gusting 5 13.3
2017-Sep-23 18:43 225 2 gusting 4 13.3
2017-Sep-23 18:38 198 2 gusting 4 13.3
2017-Sep-23 18:33 160 2 gusting 4 13.3
2017-Sep-23 18:28 222 4 gusting 6 13.3
2017-Sep-23 18:23 205 3 gusting 5 13.3
2017-Sep-23 18:18 180 4 gusting 5 13.3
2017-Sep-23 18:13 202 4 gusting 5 13.3
2017-Sep-23 18:08 222 3 gusting 5 13.3
2017-Sep-23 18:03 221 2 gusting 4 13.9
2017-Sep-23 17:58 183 3 gusting 4 13.9
2017-Sep-23 17:53 202 4 gusting 6 13.9
2017-Sep-23 17:48 182 4 gusting 4 13.9
2017-Sep-23 17:43 189 4 gusting 6 14.4
2017-Sep-23 17:38 202 5 gusting 5 14.4
2017-Sep-23 17:33 202 2 gusting 4 14.4
2017-Sep-23 17:28 204 3 gusting 5 14.4
2017-Sep-23 17:23 225 3 gusting 4 14.4
2017-Sep-23 17:18 224 5 gusting 5 15.0
2017-Sep-23 17:13 225 4 gusting 6 15.0
2017-Sep-23 17:08 202 4 gusting 5 15.0
2017-Sep-23 17:03 203 3 gusting 5 15.6
2017-Sep-23 16:58 198 3 gusting 4 15.6
2017-Sep-23 16:53 220 3 gusting 4 15.6
2017-Sep-23 16:48 183 1 gusting 2 15.6
2017-Sep-23 16:43 217 2 gusting 2 15.6
2017-Sep-23 16:38 202 1 gusting 2 15.6
2017-Sep-23 16:33 202 2 gusting 6 16.1
2017-Sep-23 16:28 180 2 gusting 5 16.1
2017-Sep-23 16:23 202 5 gusting 5 16.1
2017-Sep-23 16:18 202 3 gusting 4 16.1
2017-Sep-23 16:13 184 4 gusting 5 16.1
2017-Sep-23 16:08 202 2 gusting 6 16.1
2017-Sep-23 16:03 224 4 gusting 6 16.1
2017-Sep-23 15:58 202 6 gusting 6 16.1
2017-Sep-23 15:53 204 5 gusting 6 16.1
2017-Sep-23 15:48 202 4 gusting 5 16.1
2017-Sep-23 15:43 220 5 gusting 6 16.7
2017-Sep-23 15:38 245 5 gusting 8 16.7
2017-Sep-23 15:33 202 6 gusting 7 16.7
2017-Sep-23 15:28 225 6 gusting 8 16.7
2017-Sep-23 15:23 225 7 gusting 8 16.7
2017-Sep-23 15:18 202 7 gusting 7 16.7
2017-Sep-23 15:13 226 6 gusting 6 16.7
2017-Sep-23 15:08 224 7 gusting 8 16.7
2017-Sep-23 15:03 247 6 gusting 8 16.7
2017-Sep-23 14:58 245 8 gusting 10 16.7
2017-Sep-23 14:53 225 7 gusting 10 16.7
2017-Sep-23 14:48 206 8 gusting 8 16.7
2017-Sep-23 14:43 204 5 gusting 6 16.7
2017-Sep-23 14:38 246 6 gusting 6 16.7
2017-Sep-23 14:33 246 5 gusting 6 17.2
2017-Sep-23 14:28 204 6 gusting 7 17.2
2017-Sep-23 14:23 205 6 gusting 7 17.2
2017-Sep-23 14:18 246 5 gusting 6 17.2
2017-Sep-23 14:13 245 6 gusting 7 17.2
2017-Sep-23 14:08 224 6 gusting 7 17.2
2017-Sep-23 14:03 207 7 gusting 10 17.2
2017-Sep-23 13:58 257 6 gusting 7 17.8
2017-Sep-23 13:53 225 6 gusting 6 17.8
2017-Sep-23 13:48 212 6 gusting 6 17.8
2017-Sep-23 13:43 238 6 gusting 6 17.8
2017-Sep-23 13:38 256 4 gusting 7 17.8
2017-Sep-23 13:33 211 6 gusting 7 17.8
2017-Sep-23 13:28 202 6 gusting 6 18.3
2017-Sep-23 13:23 234 5 gusting 6 18.3
2017-Sep-23 13:18 230 4 gusting 6 18.3
2017-Sep-23 13:13 265 5 gusting 6 18.3
2017-Sep-23 13:08 206 4 gusting 6 18.3
2017-Sep-23 13:03 225 4 gusting 7 18.3
2017-Sep-23 12:58 216 2 gusting 7 18.3
2017-Sep-23 12:53 248 3 gusting 6 17.8
2017-Sep-23 12:48 180 5 gusting 6 17.8
2017-Sep-23 12:43 170 2 gusting 6 17.8
2017-Sep-23 12:38 225 6 gusting 6 17.8
2017-Sep-23 12:33 202 6 gusting 7 17.8
2017-Sep-23 12:28 220 7 gusting 8 17.8
2017-Sep-23 12:23 220 6 gusting 6 17.8
2017-Sep-23 12:18 221 4 gusting 6 17.2
2017-Sep-23 12:13 221 6 gusting 6 17.2
2017-Sep-23 12:08 224 5 gusting 7 17.2
2017-Sep-23 12:03 200 6 gusting 8 17.2
2017-Sep-23 11:58 209 5 gusting 6 17.2
2017-Sep-23 11:53 172 5 gusting 6 17.2
2017-Sep-23 11:48 202 4 gusting 6 17.2
2017-Sep-23 11:43 232 6 gusting 7 17.2
2017-Sep-23 11:38 170 6 gusting 8 17.2
2017-Sep-23 11:33 202 4 gusting 5 17.2
2017-Sep-23 11:28 158 4 gusting 4 16.7
2017-Sep-23 11:23 196 5 gusting 5 17.2
2017-Sep-23 11:18 185 4 gusting 5 17.2
2017-Sep-23 11:13 198 5 gusting 5 17.2
2017-Sep-23 11:08 145 6 gusting 7 16.7
2017-Sep-23 11:03 202 4 gusting 5 16.7
2017-Sep-23 10:58 202 5 gusting 6 16.7
2017-Sep-23 10:53 175 4 gusting 6 16.7
2017-Sep-23 10:48 180 4 gusting 5 16.7
2017-Sep-23 10:43 146 4 gusting 6 16.7
2017-Sep-23 10:38 171 4 gusting 6 16.7
2017-Sep-23 10:33 167 6 gusting 6 16.7
2017-Sep-23 10:28 180 5 gusting 6 16.7
2017-Sep-23 10:23 158 3 gusting 5 16.1
2017-Sep-23 10:18 197 5 gusting 6 16.1
2017-Sep-23 10:13 141 5 gusting 6 16.1
2017-Sep-23 10:08 153 5 gusting 6 15.6
2017-Sep-23 10:03 133 5 gusting 6 15.6
2017-Sep-23 09:58 153 4 gusting 5 15.6
2017-Sep-23 09:53 122 5 gusting 5 15.6
2017-Sep-23 09:48 136 4 gusting 6 15.0
2017-Sep-23 09:43 122 5 gusting 6 15.0
2017-Sep-23 09:38 112 6 gusting 6 15.0
2017-Sep-23 09:33 119 4 gusting 6 15.0
2017-Sep-23 09:28 128 3 gusting 6 14.4
2017-Sep-23 09:23 153 5 gusting 6 14.4
2017-Sep-23 09:18 098 4 gusting 5 14.4
2017-Sep-23 09:13 120 4 gusting 6 14.4
2017-Sep-23 09:08 158 3 gusting 6 14.4
2017-Sep-23 09:03 136 5 gusting 6 14.4
2017-Sep-23 08:58 143 4 gusting 6 14.4
2017-Sep-23 08:53 120 3 gusting 6 14.4
2017-Sep-23 08:48 121 6 gusting 6 14.4
2017-Sep-23 08:43 090 4 gusting 5 14.4
2017-Sep-23 08:38 145 3 gusting 5 14.4
2017-Sep-23 08:33 144 4 gusting 6 14.4
2017-Sep-23 08:28 127 4 gusting 6 13.9
2017-Sep-23 08:23 152 4 gusting 6 13.9
2017-Sep-23 08:18 135 4 gusting 6 13.9
2017-Sep-23 08:13 131 5 gusting 6 13.9
2017-Sep-23 08:08 135 3 gusting 6 13.9
2017-Sep-23 08:03 118 4 gusting 6 13.9
2017-Sep-23 07:58 119 5 gusting 6 13.9
2017-Sep-23 07:53 126 4 gusting 5 13.9
2017-Sep-23 07:48 115 5 gusting 6 13.9
2017-Sep-23 07:43 135 5 gusting 5 13.9
2017-Sep-23 07:38 149 4 gusting 6 13.9
2017-Sep-23 07:33 151 4 gusting 6 13.3
2017-Sep-23 07:28 128 3 gusting 4 13.3
2017-Sep-23 07:23 141 2 gusting 6 13.3
2017-Sep-23 07:18 167 5 gusting 6 13.3
2017-Sep-23 07:13 135 5 gusting 6 13.3
2017-Sep-23 07:08 132 4 gusting 5 13.3
2017-Sep-23 07:03 135 4 gusting 5 13.3
2017-Sep-23 06:58 126 3 gusting 6 13.3
2017-Sep-23 06:53 135 3 gusting 5 13.3
2017-Sep-23 06:48 143 5 gusting 6 13.3
2017-Sep-23 06:43 114 4 gusting 6 13.3
2017-Sep-23 06:38 135 3 gusting 4 13.3
2017-Sep-23 06:33 135 3 gusting 4 13.3
2017-Sep-23 06:28 121 3 gusting 4 13.3
2017-Sep-23 06:23 148 4 gusting 5 13.3
2017-Sep-23 06:18 123 5 gusting 5 13.3
2017-Sep-23 06:13 112 5 gusting 6 13.3
2017-Sep-23 06:08 127 4 gusting 6 13.3
2017-Sep-23 06:03 194 2 gusting 5 13.3
2017-Sep-23 05:58 144 3 gusting 5 12.8
2017-Sep-23 05:53 145 2 gusting 4 12.8
2017-Sep-23 05:48 135 2 gusting 4 12.8
2017-Sep-23 05:43 124 2 gusting 4 12.8
2017-Sep-23 05:38 148 4 gusting 5 12.8
2017-Sep-23 05:33 151 4 gusting 5 12.8
2017-Sep-23 05:28 141 2 gusting 5 12.8
2017-Sep-23 05:23 140 4 gusting 5 12.8
2017-Sep-23 05:18 130 3 gusting 4 12.8
2017-Sep-23 05:13 138 5 gusting 5 12.8
2017-Sep-23 05:08 130 4 gusting 6 12.8
2017-Sep-23 05:03 134 5 gusting 6 12.8
2017-Sep-23 04:58 130 2 gusting 5 12.8
2017-Sep-23 04:53 118 3 gusting 4 12.8
2017-Sep-23 04:48 135 2 gusting 4 12.8
2017-Sep-23 04:43 140 2 gusting 5 12.8
2017-Sep-23 04:38 135 2 gusting 4 12.8
2017-Sep-23 04:33 139 3 gusting 6 12.8
2017-Sep-23 04:28 160 3 gusting 6 12.8
2017-Sep-23 04:23 155 4 gusting 5 12.8
2017-Sep-23 04:18 156 2 gusting 4 12.8
2017-Sep-23 04:13 135 2 gusting 2 12.8
2017-Sep-23 04:08 133 2 gusting 4 12.8
2017-Sep-23 04:03 135 2 gusting 4 12.8
2017-Sep-23 03:58 140 2 gusting 4 12.8
2017-Sep-23 03:53 095 2 gusting 4 12.8
2017-Sep-23 03:48 112 2 gusting 4 12.8
2017-Sep-23 03:43 112 2 gusting 4 12.8
2017-Sep-23 03:38 110 2 gusting 4 12.8
2017-Sep-23 03:33 112 1 gusting 2 12.8
2017-Sep-23 03:28 112 2 gusting 2 12.8
2017-Sep-23 03:23 112 0 gusting 1 12.8
2017-Sep-23 03:18 135 0 gusting 1 12.8
2017-Sep-23 03:13 177 1 gusting 2 12.8
2017-Sep-23 03:08 135 2 gusting 4 12.8
2017-Sep-23 03:03 180 2 gusting 4 12.8
2017-Sep-23 02:58 158 1 gusting 1 12.8
2017-Sep-23 02:53 135 0 gusting 0 12.8
2017-Sep-23 02:48 135 0 gusting 0 12.8
2017-Sep-23 02:43 135 1 gusting 2 12.8
2017-Sep-23 02:38 135 2 gusting 4 12.8
2017-Sep-23 02:33 135 1 gusting 1 12.8
2017-Sep-23 02:28 202 0 gusting 1 12.8
2017-Sep-23 02:23 131 1 gusting 1 12.8
2017-Sep-23 02:18 135 1 gusting 2 12.8
2017-Sep-23 02:13 115 1 gusting 2 12.8
2017-Sep-23 02:08 135 1 gusting 2 12.8
2017-Sep-23 02:03 114 2 gusting 4 12.8
2017-Sep-23 01:58 112 0 gusting 1 12.8
2017-Sep-23 01:53 116 1 gusting 2 12.8
2017-Sep-23 01:48 112 1 gusting 1 12.8
2017-Sep-23 01:43 139 1 gusting 2 12.8
2017-Sep-23 01:38 158 2 gusting 4 12.8
2017-Sep-23 01:33 154 3 gusting 5 12.8
2017-Sep-23 01:28 199 1 gusting 2 12.8
2017-Sep-23 01:23 200 1 gusting 1 12.8
2017-Sep-23 01:18 180 1 gusting 1 12.8
2017-Sep-23 01:13 139 0 gusting 4 12.8
2017-Sep-23 01:08 136 2 gusting 4 12.8
2017-Sep-23 01:03 154 2 gusting 2 12.8
2017-Sep-23 00:58 139 1 gusting 1 13.3
2017-Sep-23 00:53 154 2 gusting 4 13.3
2017-Sep-23 00:48 156 1 gusting 4 13.3
2017-Sep-23 00:43 135 3 gusting 5 13.3
2017-Sep-23 00:38 115 2 gusting 5 13.3
2017-Sep-23 00:33 136 1 gusting 4 13.3
2017-Sep-23 00:28 156 2 gusting 4 13.3
2017-Sep-23 00:23 135 4 gusting 4 13.3
2017-Sep-23 00:18 114 2 gusting 2 13.3
2017-Sep-23 00:13 134 1 gusting 1 13.3
2017-Sep-23 00:08 134 2 gusting 4 13.3
2017-Sep-23 00:03 135 1 gusting 5 13.3
2017-Sep-22 23:58 112 2 gusting 2 13.3
2017-Sep-22 23:53 108 1 gusting 1 13.3
2017-Sep-22 23:48 139 1 gusting 2 13.3
2017-Sep-22 23:43 138 1 gusting 2 13.3
2017-Sep-22 23:38 202 13.3
2017-Sep-22 23:33 158 0 gusting 1 13.3
2017-Sep-22 23:28 195 1 gusting 4 13.3
2017-Sep-22 23:23 156 2 gusting 4 13.3
2017-Sep-22 23:18 158 3 gusting 4 13.3
2017-Sep-22 23:13 133 2 gusting 5 13.3
2017-Sep-22 23:08 135 4 gusting 5 13.3
2017-Sep-22 23:03 135 2 gusting 4 13.3
2017-Sep-22 22:58 131 4 gusting 5 13.3
2017-Sep-22 22:53 131 4 gusting 4 13.3
2017-Sep-22 22:48 140 4 gusting 6 13.3
2017-Sep-22 22:43 132 4 gusting 6 13.3
2017-Sep-22 22:38 116 5 gusting 5 13.3
2017-Sep-22 22:33 139 4 gusting 6 13.3
2017-Sep-22 22:28 158 4 gusting 7 13.3
2017-Sep-22 22:23 153 5 gusting 7 13.3
2017-Sep-22 22:18 158 6 gusting 6 13.3
2017-Sep-22 22:13 138 6 gusting 7 13.3
2017-Sep-22 22:08 162 6 gusting 6 13.3
2017-Sep-22 22:03 135 5 gusting 6 13.3
2017-Sep-22 21:58 116 5 gusting 6 13.3
2017-Sep-22 21:53 135 6 gusting 6 13.3
2017-Sep-22 21:48 154 5 gusting 6 13.3
2017-Sep-22 21:43 162 5 gusting 6 13.3
2017-Sep-22 21:38 135 5 gusting 6 13.3
2017-Sep-22 21:33 139 4 gusting 6 13.3
2017-Sep-22 21:28 135 6 gusting 6 13.3
2017-Sep-22 21:23 132 4 gusting 6 13.3
2017-Sep-22 21:18 115 4 gusting 6 13.3
2017-Sep-22 21:13 132 5 gusting 6 13.3
2017-Sep-22 21:08 154 3 gusting 5 13.3
2017-Sep-22 21:03 137 4 gusting 6 13.3
2017-Sep-22 20:58 150 6 gusting 6 13.3
2017-Sep-22 20:53 168 5 gusting 6 13.3
2017-Sep-22 20:48 158 6 gusting 6 13.3
2017-Sep-22 20:43 158 4 gusting 6 13.3
2017-Sep-22 20:38 135 4 gusting 6 13.9
2017-Sep-22 20:33 158 4 gusting 4 13.9
2017-Sep-22 20:28 142 4 gusting 5 13.9
2017-Sep-22 20:18 135 5 gusting 6 13.9
2017-Sep-22 20:13 175 5 gusting 6 13.9
2017-Sep-22 20:08 114 6 gusting 7 13.9
2017-Sep-22 20:03 158 6 gusting 7 13.9
2017-Sep-22 19:58 135 4 gusting 7 13.9
2017-Sep-22 19:53 135 6 gusting 6 13.9
2017-Sep-22 19:48 137 6 gusting 6 14.4
2017-Sep-22 19:43 086 6 gusting 7 14.4
2017-Sep-22 19:38 123 5 gusting 6 14.4
2017-Sep-22 19:33 126 5 gusting 6 14.4
2017-Sep-22 19:28 144 5 gusting 6 14.4
2017-Sep-22 19:23 112 5 gusting 6 14.4
2017-Sep-22 19:18 175 4 gusting 6 14.4
2017-Sep-22 19:13 117 5 gusting 6 14.4
2017-Sep-22 19:08 175 6 gusting 6 14.4
2017-Sep-22 19:03 138 6 gusting 6 14.4
2017-Sep-22 18:58 141 6 gusting 6 14.4
2017-Sep-22 18:53 118 6 gusting 6 14.4
2017-Sep-22 18:48 135 6 gusting 8 14.4
2017-Sep-22 18:43 148 7 gusting 10 14.4
2017-Sep-22 18:38 146 7 gusting 7 14.4
2017-Sep-22 18:33 146 6 gusting 6 14.4
2017-Sep-22 18:28 144 7 gusting 10 14.4
2017-Sep-22 18:23 149 7 gusting 8 14.4
2017-Sep-22 18:18 158 6 gusting 7 14.4
2017-Sep-22 18:13 112 4 gusting 6 14.4
2017-Sep-22 18:08 135 6 gusting 6 14.4
2017-Sep-22 18:03 135 6 gusting 6 14.4
2017-Sep-22 17:58 158 6 gusting 6 14.4
2017-Sep-22 17:53 150 4 gusting 6 14.4
2017-Sep-22 17:48 147 3 gusting 5 14.4
2017-Sep-22 17:43 147 4 gusting 5 14.4
2017-Sep-22 17:38 135 5 gusting 5 14.4
2017-Sep-22 17:33 165 5 gusting 5 14.4
2017-Sep-22 17:28 151 4 gusting 6 14.4
2017-Sep-22 17:23 158 5 gusting 6 14.4
2017-Sep-22 17:18 140 5 gusting 6 14.4
2017-Sep-22 17:13 163 5 gusting 5 14.4
2017-Sep-22 17:08 140 5 gusting 5 14.4
2017-Sep-22 17:03 158 5 gusting 6 14.4
2017-Sep-22 16:58 158 5 gusting 6 14.4
2017-Sep-22 16:53 158 5 gusting 6 14.4
2017-Sep-22 16:48 147 6 gusting 6 14.4
2017-Sep-22 16:43 168 6 gusting 7 14.4
2017-Sep-22 16:38 158 6 gusting 7 14.4
2017-Sep-22 16:33 158 5 gusting 8 14.4
2017-Sep-22 16:28 166 6 gusting 7 14.4
2017-Sep-22 16:23 158 5 gusting 6 14.4
2017-Sep-22 16:18 135 5 gusting 6 14.4
2017-Sep-22 16:13 158 5 gusting 6 14.4
2017-Sep-22 16:08 137 6 gusting 6 14.4
2017-Sep-22 16:03 135 5 gusting 6 14.4
2017-Sep-22 15:58 144 5 gusting 6 14.4
2017-Sep-22 15:53 167 4 gusting 6 14.4
2017-Sep-22 15:48 180 4 gusting 6 14.4
2017-Sep-22 15:43 169 5 gusting 6 14.4
2017-Sep-22 15:38 158 5 gusting 6 14.4
2017-Sep-22 15:33 180 6 gusting 6 15.0
2017-Sep-22 15:28 149 5 gusting 7 15.0
2017-Sep-22 15:23 158 6 gusting 7 15.0
2017-Sep-22 15:18 165 6 gusting 7 15.0
2017-Sep-22 15:13 174 6 gusting 7 15.0
2017-Sep-22 15:08 156 5 gusting 6 15.0
2017-Sep-22 15:03 158 6 gusting 10 15.0
2017-Sep-22 14:58 150 7 gusting 10 15.0
2017-Sep-22 14:53 158 8 gusting 8 15.0
2017-Sep-22 14:48 135 9 gusting 10 15.0
2017-Sep-22 14:43 146 8 gusting 10 15.0
2017-Sep-22 14:38 145 8 gusting 11 15.0
2017-Sep-22 14:33 126 8 gusting 11 15.0
2017-Sep-22 14:28 158 7 gusting 8 15.0
2017-Sep-22 14:23 151 6 gusting 7 15.0
2017-Sep-22 14:18 135 6 gusting 8 15.0
2017-Sep-22 14:13 135 5 gusting 6 15.0
2017-Sep-22 14:08 135 6 gusting 8 15.0
2017-Sep-22 14:03 158 7 gusting 8 15.0
2017-Sep-22 13:58 158 5 gusting 6 14.4
2017-Sep-22 13:53 150 7 gusting 7 14.4
2017-Sep-22 13:48 145 6 gusting 8 14.4
2017-Sep-22 13:43 170 7 gusting 8 14.4
2017-Sep-22 13:38 135 7 gusting 8 14.4
2017-Sep-22 13:33 180 8 gusting 10 14.4
2017-Sep-22 13:28 167 7 gusting 8 14.4
2017-Sep-22 13:23 158 6 gusting 8 14.4
2017-Sep-22 13:18 135 7 gusting 10 14.4
2017-Sep-22 13:13 183 8 gusting 10 14.4
2017-Sep-22 13:08 175 7 gusting 7 14.4
2017-Sep-22 13:03 136 7 gusting 8 14.4
2017-Sep-22 12:58 175 6 gusting 10 14.4
2017-Sep-22 12:53 166 7 gusting 10 15.0
2017-Sep-22 12:48 146 6 gusting 6 15.0
2017-Sep-22 12:43 148 8 gusting 11 15.0
2017-Sep-22 12:38 158 7 gusting 8 15.0
2017-Sep-22 12:33 135 8 gusting 8 15.0
2017-Sep-22 12:28 151 7 gusting 10 15.0
2017-Sep-22 12:23 151 8 gusting 10 15.0
2017-Sep-22 12:18 211 7 gusting 8 15.0
2017-Sep-22 12:13 155 10 gusting 11 15.6
2017-Sep-22 12:08 135 9 gusting 10 15.6
2017-Sep-22 12:03 201 6 gusting 10 15.6
2017-Sep-22 11:58 158 8 gusting 10 15.6
2017-Sep-22 11:53 158 6 gusting 8 15.6
2017-Sep-22 11:48 146 10 gusting 12 15.6
2017-Sep-22 11:43 158 7 gusting 10 15.6
2017-Sep-22 11:38 149 7 gusting 8 15.6
2017-Sep-22 11:33 158 7 gusting 8 15.6
2017-Sep-22 11:28 204 7 gusting 10 15.6
2017-Sep-22 11:23 174 6 gusting 8 15.6
2017-Sep-22 11:18 162 8 gusting 10 15.6
2017-Sep-22 11:13 155 7 gusting 11 15.0
2017-Sep-22 11:08 138 7 gusting 10 15.0
2017-Sep-22 11:03 160 7 gusting 10 15.0
2017-Sep-22 10:58 186 7 gusting 8 15.0
2017-Sep-22 10:53 158 9 gusting 10 15.0
2017-Sep-22 10:48 167 8 gusting 10 15.0
2017-Sep-22 10:43 158 6 gusting 7 15.0
2017-Sep-22 10:38 183 7 gusting 8 15.0
2017-Sep-22 10:33 176 7 gusting 10 15.0
2017-Sep-22 10:28 173 7 gusting 7 15.0
2017-Sep-22 10:23 158 6 gusting 6 15.0
2017-Sep-22 10:18 158 5 gusting 6 15.0
2017-Sep-22 10:13 180 4 gusting 6 15.0
2017-Sep-22 10:08 118 6 gusting 6 15.0
2017-Sep-22 10:03 178 6 gusting 13 15.0
2017-Sep-22 09:58 135 8 gusting 10 15.0
2017-Sep-22 09:53 174 6 gusting 8 15.0
2017-Sep-22 09:48 180 7 gusting 10 15.0
2017-Sep-22 09:43 161 9 gusting 11 15.0
2017-Sep-22 09:38 158 8 gusting 8 15.0
2017-Sep-22 09:33 177 8 gusting 8 15.0
2017-Sep-22 09:28 177 8 gusting 11 15.0
2017-Sep-22 09:23 135 7 gusting 11 15.0
2017-Sep-22 09:18 200 8 gusting 12 15.0
2017-Sep-22 09:13 159 5 gusting 10 15.0
2017-Sep-22 09:08 135 8 gusting 10 15.0
2017-Sep-22 09:03 137 10 gusting 12 15.0
2017-Sep-22 08:58 176 10 gusting 11 15.0
2017-Sep-22 08:53 161 11 gusting 13 15.0
2017-Sep-22 08:48 162 9 gusting 11 15.0
2017-Sep-22 08:43 158 10 gusting 12 15.0
2017-Sep-22 08:38 158 8 gusting 10 14.4
2017-Sep-22 08:33 161 8 gusting 11 15.0
2017-Sep-22 08:28 140 8 gusting 13 14.4
2017-Sep-22 08:23 135 10 gusting 13 14.4
2017-Sep-22 08:18 180 8 gusting 12 14.4
2017-Sep-22 08:13 180 8 gusting 12 14.4
2017-Sep-22 08:08 180 11 gusting 13 14.4
2017-Sep-22 08:03 156 10 gusting 13 14.4
2017-Sep-22 07:58 188 8 gusting 12 14.4
2017-Sep-22 07:53 186 12 gusting 15 14.4
2017-Sep-22 07:48 153 12 gusting 13 14.4
2017-Sep-22 07:43 175 11 gusting 13 14.4
2017-Sep-22 07:38 120 11 gusting 11 14.4
2017-Sep-22 07:33 154 9 gusting 11 14.4
2017-Sep-22 07:28 138 8 gusting 10 14.4
2017-Sep-22 07:23 155 8 gusting 10 14.4
2017-Sep-22 07:18 163 10 gusting 12 14.4
2017-Sep-22 07:13 158 11 gusting 12 14.4
2017-Sep-22 07:08 138 11 gusting 12 14.4
2017-Sep-22 07:03 200 10 gusting 12 14.4
2017-Sep-22 06:58 173 10 gusting 13 14.4
2017-Sep-22 06:53 158 11 gusting 13 14.4
2017-Sep-22 06:48 142 12 gusting 12 14.4
2017-Sep-22 06:43 152 10 gusting 13 14.4
2017-Sep-22 06:38 174 11 gusting 12 14.4
2017-Sep-22 06:33 163 9 gusting 12 14.4
2017-Sep-22 06:28 153 12 gusting 13 14.4
2017-Sep-22 06:23 158 12 gusting 13 14.4
2017-Sep-22 06:18 164 10 gusting 11 14.4
2017-Sep-22 06:13 164 11 gusting 12 14.4
2017-Sep-22 06:08 115 11 gusting 12 14.4
2017-Sep-22 06:03 139 10 gusting 11 13.9
2017-Sep-22 05:58 187 12 gusting 13 13.9
2017-Sep-22 05:53 164 12 gusting 13 13.9
2017-Sep-22 05:48 191 13 gusting 15 13.9
2017-Sep-22 05:43 158 12 gusting 15 13.9
2017-Sep-22 05:38 158 12 gusting 13 13.9
2017-Sep-22 05:33 195 12 gusting 13 13.9
2017-Sep-22 05:28 165 10 gusting 12 13.9
2017-Sep-22 05:23 116 12 gusting 14 13.9
2017-Sep-22 05:18 193 11 gusting 13 13.9
2017-Sep-22 05:13 213 13 gusting 15 13.9
2017-Sep-22 05:08 174 10 gusting 13 13.9
2017-Sep-22 05:03 142 10 gusting 13 13.9
2017-Sep-22 04:58 135 11 gusting 13 13.9
2017-Sep-22 04:53 174 11 gusting 13 13.9
2017-Sep-22 04:48 164 10 gusting 12 13.9
2017-Sep-22 04:43 187 9 gusting 12 13.9
2017-Sep-22 04:38 158 9 gusting 11 13.9
2017-Sep-22 04:33 120 12 gusting 13 13.9
2017-Sep-22 04:28 173 11 gusting 12 13.9
2017-Sep-22 04:23 142 12 gusting 13 13.9
2017-Sep-22 04:18 146 10 gusting 12 13.9
2017-Sep-22 04:13 192 10 gusting 13 13.9
2017-Sep-22 04:08 180 13 gusting 15 13.9
2017-Sep-22 04:03 176 13 gusting 13 13.9
2017-Sep-22 03:58 180 11 gusting 15 13.9
2017-Sep-22 03:53 125 11 gusting 13 13.9
2017-Sep-22 03:48 171 12 gusting 13 13.9
2017-Sep-22 03:43 157 12 gusting 13 13.9
2017-Sep-22 03:38 147 12 gusting 13 13.9
2017-Sep-22 03:33 158 14 gusting 17 13.9
2017-Sep-22 03:28 143 13 gusting 17 14.4
2017-Sep-22 03:23 171 13 gusting 17 14.4
2017-Sep-22 03:18 151 12 gusting 18 13.9
2017-Sep-22 03:13 171 13 gusting 13 13.9
2017-Sep-22 03:08 146 13 gusting 15 13.9
2017-Sep-22 03:03 140 11 gusting 12 13.9
2017-Sep-22 02:58 173 11 gusting 13 14.4
2017-Sep-22 02:53 165 14 gusting 15 13.9
2017-Sep-22 02:48 149 12 gusting 13 13.9
2017-Sep-22 02:43 180 11 gusting 13 14.4
2017-Sep-22 02:38 147 12 gusting 13 14.4
2017-Sep-22 02:33 158 11 gusting 12 14.4
2017-Sep-22 02:28 165 10 gusting 11 14.4
2017-Sep-22 02:23 154 11 gusting 13 14.4
2017-Sep-22 02:18 173 12 gusting 14 14.4
2017-Sep-22 02:13 135 10 gusting 13 13.9
2017-Sep-22 02:08 158 13 gusting 14 13.9
2017-Sep-22 02:03 137 12 gusting 13 13.9
2017-Sep-22 01:58 158 13 gusting 14 13.9
2017-Sep-22 01:53 165 12 gusting 14 13.9
2017-Sep-22 01:48 184 10 gusting 13 13.9
2017-Sep-22 01:43 159 12 gusting 13 13.9
2017-Sep-22 01:38 158 10 gusting 12 13.9
2017-Sep-22 01:33 160 8 gusting 12 13.3
2017-Sep-22 01:28 150 8 gusting 11 13.3
2017-Sep-22 01:23 173 8 gusting 10 13.3
2017-Sep-22 01:18 135 8 gusting 12 13.3
2017-Sep-22 01:13 154 7 gusting 10 13.3
2017-Sep-22 01:08 132 9 gusting 11 13.3
2017-Sep-22 01:03 158 13 gusting 13 13.3
2017-Sep-22 00:58 142 9 gusting 11 13.3
2017-Sep-22 00:53 135 7 gusting 13 12.8
2017-Sep-22 00:48 134 11 gusting 13 12.8
2017-Sep-22 00:43 135 8 gusting 8 12.8
2017-Sep-22 00:38 112 6 gusting 7 12.8
2017-Sep-22 00:33 112 8 gusting 12 12.8
2017-Sep-22 00:28 127 6 gusting 10 12.8
2017-Sep-22 00:23 135 9 gusting 10 12.8
2017-Sep-22 00:18 135 9 gusting 10 12.8
2017-Sep-22 00:13 112 8 gusting 12 12.8
2017-Sep-22 00:08 133 8 gusting 12 12.8
2017-Sep-22 00:03 072 8 gusting 10 12.8
2017-Sep-21 23:58 158 8 gusting 12 12.8
2017-Sep-21 23:53 135 9 gusting 12 12.8
2017-Sep-21 23:48 135 9 gusting 12 12.8
2017-Sep-21 23:43 158 6 gusting 12 12.8
2017-Sep-21 23:38 144 7 gusting 8 12.8
2017-Sep-21 23:33 135 8 gusting 11 12.8
2017-Sep-21 23:28 124 8 gusting 12 12.8
2017-Sep-21 23:23 129 11 gusting 13 12.8
2017-Sep-21 23:18 142 8 gusting 13 12.8
2017-Sep-21 23:13 078 8 gusting 11 12.8
2017-Sep-21 23:08 138 7 gusting 12 12.8
2017-Sep-21 23:03 112 7 gusting 11 12.8